Time;durP1;ratioP1;P1;durP2;ratioP2;P2;SDS_P1;SDS_P2;PMS_P1;PMS_P2;Temp;Humidity;BMP_temperature;BMP_pressure;BME280_temperature;BME280_humidity;BME280_pressure;Samples;Min_cycle;Max_cycle;Signal;HPM_P1;HPM_P2
2021/11/05 00:00:14;;;;;;;16.13;7.95;;;6.70;99.90;;;;;;5112358;28;20531;-69
2021/11/05 00:02:45;;;;;;;11.45;7.60;;;6.70;99.90;;;;;;5112575;28;20050;-70
2021/11/05 00:05:11;;;;;;;14.10;7.85;;;6.70;99.90;;;;;;5095960;28;20047;-70
2021/11/05 00:07:37;;;;;;;15.98;7.65;;;6.60;99.90;;;;;;5114032;28;20449;-70
2021/11/05 00:10:05;;;;;;;14.75;7.40;;;6.70;99.90;;;;;;5112094;28;20047;-69
2021/11/05 00:12:30;;;;;;;13.35;7.55;;;6.70;99.90;;;;;;5113522;28;20032;-70
2021/11/05 00:14:56;;;;;;;11.68;6.65;;;6.70;99.90;;;;;;5113744;28;20040;-70
2021/11/05 00:17:21;;;;;;;13.15;7.35;;;6.60;99.90;;;;;;5113524;28;20107;-70
2021/11/05 00:19:47;;;;;;;16.30;7.28;;;6.70;99.90;;;;;;5113302;28;20028;-69
2021/11/05 00:22:16;;;;;;;10.60;6.38;;;6.70;99.90;;;;;;5112736;28;20035;-70
2021/11/05 00:24:41;;;;;;;11.05;7.15;;;6.70;99.90;;;;;;5113953;28;20067;-68
2021/11/05 00:27:07;;;;;;;11.85;6.35;;;6.60;99.90;;;;;;5113950;28;20467;-69
2021/11/05 00:29:33;;;;;;;12.02;6.50;;;6.70;99.90;;;;;;5112071;28;20460;-68
2021/11/05 00:31:58;;;;;;;12.40;5.85;;;6.60;99.90;;;;;;5113299;28;20047;-69
2021/11/05 00:34:24;;;;;;;11.07;5.90;;;6.60;99.90;;;;;;5114109;28;20119;-69
2021/11/05 00:36:49;;;;;;;9.00;5.68;;;6.70;99.90;;;;;;5113460;28;20115;-69
2021/11/05 00:39:16;;;;;;;13.95;5.85;;;6.70;99.90;;;;;;5111712;28;20039;-68
2021/11/05 00:41:42;;;;;;;12.25;6.35;;;6.80;99.90;;;;;;5112207;28;20132;-69
2021/11/05 00:44:07;;;;;;;10.65;4.80;;;6.80;99.90;;;;;;5113710;28;20040;-69
2021/11/05 00:46:33;;;;;;;8.90;5.38;;;6.80;99.90;;;;;;5113659;28;20032;-69
2021/11/05 00:49:02;;;;;;;9.77;4.95;;;6.80;99.90;;;;;;5113250;28;20074;-68
2021/11/05 00:51:28;;;;;;;11.43;5.65;;;6.90;99.90;;;;;;5113377;28;20050;-69
2021/11/05 00:53:54;;;;;;;8.52;5.03;;;6.90;99.90;;;;;;5113401;28;20120;-69
2021/11/05 00:56:20;;;;;;;10.05;4.93;;;6.90;99.90;;;;;;5113439;28;20194;-69
2021/11/05 00:58:46;;;;;;;9.00;5.03;;;7.00;99.90;;;;;;5113035;28;20071;-68
2021/11/05 01:01:11;;;;;;;12.07;5.05;;;7.00;99.90;;;;;;5112198;28;20043;-69
2021/11/05 01:03:37;;;;;;;10.43;4.80;;;7.10;99.90;;;;;;5113080;28;20043;-69
2021/11/05 01:06:02;;;;;;;9.13;4.43;;;7.10;99.90;;;;;;5113781;28;20071;-69
2021/11/05 01:08:28;;;;;;;9.23;4.45;;;7.10;99.90;;;;;;5113191;28;20039;-68
2021/11/05 01:10:54;;;;;;;9.20;4.45;;;7.10;99.90;;;;;;5113082;28;20054;-69
2021/11/05 01:13:20;;;;;;;6.13;3.58;;;7.20;99.90;;;;;;5113472;28;20047;-69
2021/11/05 01:15:46;;;;;;;7.72;4.43;;;7.20;99.90;;;;;;5111991;28;20100;-69
2021/11/05 01:18:11;;;;;;;6.88;3.60;;;7.20;99.90;;;;;;5111865;28;20491;-69
2021/11/05 01:20:39;;;;;;;7.15;3.70;;;7.30;99.90;;;;;;5112620;28;20032;-68
2021/11/05 01:23:06;;;;;;;7.18;3.65;;;7.30;99.90;;;;;;5114442;28;20168;-69
2021/11/05 01:25:31;;;;;;;12.43;4.00;;;7.30;99.90;;;;;;5116048;28;20050;-69
2021/11/05 01:27:57;;;;;;;8.85;3.30;;;7.30;99.90;;;;;;5115779;28;20391;-69
2021/11/05 01:30:23;;;;;;;7.00;3.67;;;7.30;99.90;;;;;;5116628;28;20085;-68
2021/11/05 01:32:49;;;;;;;10.07;4.45;;;7.30;99.90;;;;;;5116354;27;20044;-69
2021/11/05 01:35:18;;;;;;;6.40;3.70;;;7.20;99.90;;;;;;5116650;28;20040;-69
2021/11/05 01:37:44;;;;;;;10.95;3.92;;;7.20;99.90;;;;;;5116487;28;20042;-69
2021/11/05 01:40:12;;;;;;;8.98;3.60;;;7.30;99.90;;;;;;5114786;28;20039;-68
2021/11/05 01:42:38;;;;;;;8.45;3.97;;;7.30;99.90;;;;;;5116316;28;20047;-69
2021/11/05 01:45:06;;;;;;;9.52;4.40;;;7.30;99.90;;;;;;5115432;28;20524;-69
2021/11/05 01:47:32;;;;;;;8.85;3.60;;;7.30;99.90;;;;;;5116252;28;20036;-69
2021/11/05 01:49:57;;;;;;;6.30;3.13;;;7.30;99.90;;;;;;5116123;28;20579;-68
2021/11/05 01:52:23;;;;;;;7.65;3.85;;;7.30;99.90;;;;;;5116012;28;20042;-69
2021/11/05 01:54:50;;;;;;;6.47;4.20;;;7.30;99.90;;;;;;5116164;28;20040;-69
2021/11/05 01:57:16;;;;;;;8.10;3.40;;;7.20;99.90;;;;;;5116267;28;20474;-69
2021/11/05 01:59:48;;;;;;;10.07;3.67;;;7.20;99.90;;;;;;5115918;28;20119;-68
2021/11/05 02:02:13;;;;;;;5.78;3.55;;;7.20;99.90;;;;;;5116283;28;20066;-69
2021/11/05 02:04:39;;;;;;;7.82;3.63;;;7.20;99.90;;;;;;5116276;28;20157;-69
2021/11/05 02:07:06;;;;;;;7.60;3.40;;;7.20;99.90;;;;;;5116277;28;20403;-69
2021/11/05 02:09:33;;;;;;;4.75;3.00;;;7.20;99.90;;;;;;5114416;28;20080;-68
2021/11/05 02:12:00;;;;;;;8.35;2.85;;;7.20;99.90;;;;;;5115096;28;20391;-69
2021/11/05 02:14:28;;;;;;;7.35;3.10;;;7.10;99.90;;;;;;5115129;28;20471;-69
2021/11/05 02:16:56;;;;;;;7.22;3.60;;;7.10;99.90;;;;;;5114708;28;20043;-69
2021/11/05 02:19:24;;;;;;;6.30;3.00;;;7.10;99.90;;;;;;5115503;28;20162;-68
2021/11/05 02:21:52;;;;;;;9.55;3.30;;;7.10;99.90;;;;;;5115972;27;20050;-69
2021/11/05 02:24:19;;;;;;;6.13;3.35;;;7.10;99.90;;;;;;5115564;28;20036;-69
2021/11/05 02:26:45;;;;;;;9.20;3.40;;;7.10;99.90;;;;;;5115574;28;20050;-69
2021/11/05 02:29:12;;;;;;;7.35;3.40;;;7.00;99.90;;;;;;5115212;28;20387;-68
2021/11/05 02:31:38;;;;;;;8.82;3.10;;;7.00;99.90;;;;;;5115454;28;20559;-69
2021/11/05 02:34:04;;;;;;;7.78;3.20;;;7.00;99.90;;;;;;5114321;28;20491;-69
2021/11/05 02:36:30;;;;;;;10.18;3.58;;;7.00;99.90;;;;;;5114458;28;20036;-69
2021/11/05 02:38:57;;;;;;;5.13;2.78;;;6.90;99.90;;;;;;5115094;28;20040;-68
2021/11/05 02:41:23;;;;;;;5.97;2.80;;;6.90;99.90;;;;;;5115314;28;20036;-69
2021/11/05 02:43:49;;;;;;;6.90;3.65;;;6.90;99.90;;;;;;5114988;28;20499;-69
2021/11/05 02:46:15;;;;;;;9.25;3.97;;;6.90;99.90;;;;;;5115194;27;20118;-69
2021/11/05 02:48:41;;;;;;;9.07;3.72;;;6.90;99.90;;;;;;5115129;28;20123;-68
2021/11/05 02:51:11;;;;;;;6.63;2.85;;;6.90;99.90;;;;;;5115318;28;20123;-69
2021/11/05 02:53:37;;;;;;;7.55;3.17;;;6.90;99.90;;;;;;5115030;28;20036;-68
2021/11/05 02:56:04;;;;;;;8.90;3.67;;;6.80;99.90;;;;;;5115538;28;20047;-69
2021/11/05 02:58:30;;;;;;;6.80;3.10;;;6.80;99.90;;;;;;5096577;28;20035;-68
2021/11/05 03:00:58;;;;;;;6.63;3.17;;;6.80;99.90;;;;;;5114793;28;20042;-69
2021/11/05 03:03:24;;;;;;;8.77;3.33;;;6.80;99.90;;;;;;5115136;28;20071;-69
2021/11/05 03:05:49;;;;;;;5.55;2.85;;;6.80;99.90;;;;;;5115223;28;20052;-69
2021/11/05 03:08:15;;;;;;;11.60;3.38;;;6.80;99.90;;;;;;5113400;28;20051;-69
2021/11/05 03:10:40;;;;;;;5.63;2.55;;;6.80;99.90;;;;;;5114567;28;20035;-68
2021/11/05 03:13:06;;;;;;;6.60;2.88;;;6.80;99.90;;;;;;5114716;28;20128;-69
2021/11/05 03:15:32;;;;;;;5.80;2.20;;;6.80;99.90;;;;;;5114961;28;20369;-69
2021/11/05 03:18:00;;;;;;;8.98;2.72;;;6.80;99.90;;;;;;5113352;28;20115;-69
2021/11/05 03:20:25;;;;;;;7.00;2.75;;;6.80;99.90;;;;;;5113116;28;20043;-68
2021/11/05 03:22:51;;;;;;;8.65;2.47;;;6.80;99.90;;;;;;5114371;28;20049;-69
2021/11/05 03:25:17;;;;;;;7.45;3.00;;;6.80;99.90;;;;;;5114283;28;20372;-69
2021/11/05 03:27:43;;;;;;;7.80;3.13;;;6.80;99.90;;;;;;5114539;28;20094;-69
2021/11/05 03:30:11;;;;;;;7.88;2.50;;;6.80;99.90;;;;;;5114089;28;20049;-68
2021/11/05 03:32:37;;;;;;;12.85;2.78;;;6.80;99.90;;;;;;5114383;28;20040;-69
2021/11/05 03:35:09;;;;;;;4.15;2.22;;;6.80;99.90;;;;;;5114245;28;20078;-69
2021/11/05 03:37:35;;;;;;;9.40;2.72;;;6.80;99.90;;;;;;5114371;28;20039;-69
2021/11/05 03:40:02;;;;;;;8.43;2.80;;;6.80;99.90;;;;;;5113793;28;20096;-68
2021/11/05 03:42:28;;;;;;;9.55;3.13;;;6.80;99.90;;;;;;5114169;28;20099;-69
2021/11/05 03:44:54;;;;;;;9.90;3.38;;;6.80;99.90;;;;;;5113303;28;20043;-69
2021/11/05 03:47:19;;;;;;;7.10;2.65;;;6.90;99.90;;;;;;5114112;28;20372;-69
2021/11/05 03:49:45;;;;;;;6.00;2.78;;;6.90;99.90;;;;;;5113674;28;20497;-68
2021/11/05 03:52:10;;;;;;;11.13;2.75;;;6.90;99.90;;;;;;5112732;28;20084;-69
2021/11/05 03:54:36;;;;;;;7.60;2.47;;;6.90;99.90;;;;;;5114003;28;20503;-69
2021/11/05 03:57:02;;;;;;;7.75;2.50;;;6.80;99.90;;;;;;5112903;28;20037;-69
2021/11/05 03:59:28;;;;;;;8.85;2.92;;;6.90;99.90;;;;;;5112564;28;20046;-68
2021/11/05 04:01:53;;;;;;;6.82;2.75;;;6.90;99.90;;;;;;5112959;28;20126;-69
2021/11/05 04:04:19;;;;;;;7.13;2.67;;;7.00;99.90;;;;;;5113982;28;20045;-69
2021/11/05 04:06:46;;;;;;;6.50;2.60;;;7.00;99.90;;;;;;5113829;28;20035;-69
2021/11/05 04:09:12;;;;;;;6.88;2.90;;;7.10;99.90;;;;;;5113691;28;20051;-68
2021/11/05 04:11:38;;;;;;;6.45;2.35;;;7.10;99.90;;;;;;5113940;28;20043;-69
2021/11/05 04:14:04;;;;;;;4.70;2.47;;;7.10;99.90;;;;;;5113663;28;20079;-69
2021/11/05 04:16:29;;;;;;;3.63;2.25;;;7.10;99.90;;;;;;5113828;28;20078;-69
2021/11/05 04:18:55;;;;;;;7.15;2.50;;;7.10;99.90;;;;;;5111954;28;20072;-68
2021/11/05 04:21:22;;;;;;;6.97;2.17;;;7.10;99.90;;;;;;5112373;28;20079;-69
2021/11/05 04:23:47;;;;;;;8.68;2.88;;;7.20;99.90;;;;;;5113410;28;20062;-69
2021/11/05 04:26:15;;;;;;;6.63;2.38;;;7.20;99.90;;;;;;5112310;28;20040;-69
2021/11/05 04:28:41;;;;;;;7.85;2.33;;;7.30;99.90;;;;;;5113328;28;20051;-68
2021/11/05 04:31:07;;;;;;;6.60;2.15;;;7.30;99.90;;;;;;5112400;28;20043;-69
2021/11/05 04:33:32;;;;;;;5.63;1.92;;;7.30;99.90;;;;;;5112129;28;20043;-69
2021/11/05 04:36:00;;;;;;;8.00;2.30;;;7.40;99.90;;;;;;5113745;28;20511;-69
2021/11/05 04:38:26;;;;;;;6.28;2.17;;;7.40;99.90;;;;;;5113461;28;20047;-69
2021/11/05 04:40:54;;;;;;;6.88;2.40;;;7.40;99.90;;;;;;5113361;28;20398;-68
2021/11/05 04:43:20;;;;;;;5.47;2.13;;;7.40;99.90;;;;;;5113775;28;20043;-69
2021/11/05 04:45:45;;;;;;;6.82;2.30;;;7.40;99.90;;;;;;5113864;28;20038;-69
2021/11/05 04:48:11;;;;;;;7.00;2.25;;;7.40;99.90;;;;;;5113724;28;20032;-69
2021/11/05 04:50:37;;;;;;;4.10;1.75;;;7.40;99.90;;;;;;5113302;28;20035;-68
2021/11/05 04:53:04;;;;;;;9.30;2.10;;;7.40;99.90;;;;;;5113420;28;20491;-69
2021/11/05 04:55:30;;;;;;;8.80;1.85;;;7.30;99.90;;;;;;5113576;28;20043;-69
2021/11/05 04:57:57;;;;;;;6.03;1.73;;;7.30;99.90;;;;;;5113430;28;20044;-69
2021/11/05 05:00:24;;;;;;;7.75;2.10;;;7.30;99.90;;;;;;5115601;28;20032;-69
2021/11/05 05:02:50;;;;;;;7.30;1.70;;;7.30;99.90;;;;;;5117159;28;20500;-69
2021/11/05 05:05:17;;;;;;;6.53;1.92;;;7.30;99.90;;;;;;5116844;28;20039;-69
2021/11/05 05:07:43;;;;;;;12.38;2.17;;;7.30;99.90;;;;;;5115809;28;20043;-69
2021/11/05 05:10:09;;;;;;;10.50;1.92;;;7.20;99.90;;;;;;5116411;28;20438;-68
2021/11/05 05:12:36;;;;;;;8.23;1.83;;;7.30;99.90;;;;;;5115760;28;20403;-69
2021/11/05 05:15:04;;;;;;;8.63;1.80;;;7.20;99.90;;;;;;5115611;28;20043;-69
2021/11/05 05:17:30;;;;;;;12.68;3.10;;;7.20;99.90;;;;;;5115858;28;20047;-69
2021/11/05 05:19:55;;;;;;;8.20;2.05;;;7.20;99.90;;;;;;5115280;28;20035;-69
2021/11/05 05:22:21;;;;;;;9.30;1.80;;;7.20;99.90;;;;;;5116890;28;20040;-69
2021/11/05 05:24:46;;;;;;;6.07;1.50;;;7.20;99.90;;;;;;5116921;28;20078;-69
2021/11/05 05:27:12;;;;;;;5.40;1.30;;;7.20;99.90;;;;;;5116868;28;20078;-69
2021/11/05 05:29:39;;;;;;;5.30;1.60;;;7.20;99.90;;;;;;5115206;28;20044;-68
2021/11/05 05:32:05;;;;;;;4.35;1.58;;;7.10;99.90;;;;;;5116367;28;20123;-69
2021/11/05 05:34:30;;;;;;;5.70;1.67;;;7.20;99.90;;;;;;5116575;27;20067;-69
2021/11/05 05:36:56;;;;;;;6.90;1.85;;;7.10;99.90;;;;;;5116703;28;20400;-69
2021/11/05 05:39:22;;;;;;;9.75;1.77;;;7.10;99.90;;;;;;5115034;28;20092;-69
2021/11/05 05:41:48;;;;;;;8.88;2.03;;;7.20;99.90;;;;;;5115499;28;20074;-69
2021/11/05 05:44:13;;;;;;;5.15;1.60;;;7.10;99.90;;;;;;5115669;28;20031;-69
2021/11/05 05:46:39;;;;;;;8.05;1.77;;;7.10;99.90;;;;;;5115095;28;20475;-69
2021/11/05 05:49:04;;;;;;;7.38;1.80;;;7.20;99.90;;;;;;5116153;28;20047;-68
2021/11/05 05:51:33;;;;;;;4.60;1.90;;;7.10;99.90;;;;;;5114943;28;20062;-69
2021/11/05 05:53:59;;;;;;;6.30;1.67;;;7.10;99.90;;;;;;5116103;28;20040;-69
2021/11/05 05:56:25;;;;;;;8.52;1.77;;;7.10;99.90;;;;;;5116175;28;20051;-69
2021/11/05 05:58:51;;;;;;;9.43;2.10;;;7.10;99.90;;;;;;5115699;28;20040;-68
2021/11/05 06:01:16;;;;;;;6.88;1.73;;;7.10;99.90;;;;;;5116179;28;20050;-69
2021/11/05 06:03:42;;;;;;;9.00;1.60;;;7.10;99.90;;;;;;5114476;28;20043;-69
2021/11/05 06:06:07;;;;;;;8.02;2.15;;;7.10;99.90;;;;;;5116027;28;20054;-69
2021/11/05 06:08:33;;;;;;;8.07;1.65;;;7.10;99.90;;;;;;5114390;28;20039;-68
2021/11/05 06:10:59;;;;;;;6.32;1.95;;;7.10;99.90;;;;;;5115987;28;20039;-69
2021/11/05 06:13:24;;;;;;;7.38;1.73;;;7.10;99.90;;;;;;5115645;28;20043;-69
2021/11/05 06:15:50;;;;;;;5.28;1.73;;;7.10;99.90;;;;;;5115833;28;20038;-69
2021/11/05 06:18:16;;;;;;;4.65;1.60;;;7.10;99.90;;;;;;5114289;28;20088;-69
2021/11/05 06:20:41;;;;;;;8.18;1.70;;;7.20;99.90;;;;;;5115651;28;20044;-68
2021/11/05 06:23:07;;;;;;;10.50;1.90;;;7.20;99.90;;;;;;5115779;28;20070;-69
2021/11/05 06:25:33;;;;;;;6.20;2.50;;;7.20;99.90;;;;;;5115917;28;20040;-69
2021/11/05 06:27:58;;;;;;;3.10;1.60;;;7.30;99.90;;;;;;5116024;28;20024;-69
2021/11/05 06:30:24;;;;;;;5.35;1.80;;;7.30;99.90;;;;;;5114329;28;20042;-68
2021/11/05 06:32:51;;;;;;;7.65;1.85;;;7.30;99.90;;;;;;5114211;28;20407;-69
2021/11/05 06:35:17;;;;;;;5.47;2.08;;;7.40;99.90;;;;;;5115554;28;20059;-69
2021/11/05 06:37:43;;;;;;;5.30;1.70;;;7.40;99.90;;;;;;5115586;28;20039;-69
2021/11/05 06:40:11;;;;;;;7.55;1.77;;;7.40;99.90;;;;;;5113600;28;20067;-68
2021/11/05 06:42:38;;;;;;;9.65;1.90;;;7.50;99.90;;;;;;5115283;28;20043;-69
2021/11/05 06:45:06;;;;;;;10.60;2.72;;;7.50;99.90;;;;;;5115160;28;20044;-69
2021/11/05 06:47:31;;;;;;;7.97;1.90;;;7.50;99.90;;;;;;5115098;28;20054;-69
2021/11/05 06:49:57;;;;;;;9.90;2.08;;;7.60;99.90;;;;;;5113565;28;20369;-69
2021/11/05 06:52:22;;;;;;;5.82;2.05;;;7.60;99.90;;;;;;5113711;28;20403;-69
2021/11/05 06:54:48;;;;;;;3.33;1.20;;;7.60;99.90;;;;;;5115043;28;20032;-69
2021/11/05 06:57:14;;;;;;;9.60;2.08;;;7.60;99.90;;;;;;5115463;28;20043;-69
2021/11/05 06:59:39;;;;;;;6.45;1.88;;;7.60;99.90;;;;;;5114734;28;20042;-68
2021/11/05 07:02:05;;;;;;;7.13;1.90;;;7.60;99.90;;;;;;5113832;28;20035;-69
2021/11/05 07:04:31;;;;;;;5.28;1.67;;;7.50;99.90;;;;;;5114976;28;20040;-69
2021/11/05 07:06:57;;;;;;;13.60;2.15;;;7.60;99.90;;;;;;5114782;28;20061;-69
2021/11/05 07:09:23;;;;;;;5.65;2.08;;;7.60;99.90;;;;;;5114298;28;20113;-68
2021/11/05 07:11:49;;;;;;;8.45;1.70;;;7.50;99.90;;;;;;5115099;28;20478;-69
2021/11/05 07:14:16;;;;;;;8.85;1.70;;;7.50;99.90;;;;;;5114845;28;20487;-69
2021/11/05 07:16:43;;;;;;;5.70;1.60;;;7.50;99.90;;;;;;5113627;28;20075;-69
2021/11/05 07:19:09;;;;;;;9.25;1.60;;;7.50;99.90;;;;;;5114151;28;20035;-68
2021/11/05 07:21:35;;;;;;;12.50;2.42;;;7.60;99.90;;;;;;5113615;28;20070;-69
2021/11/05 07:24:02;;;;;;;7.80;1.80;;;7.60;99.90;;;;;;5103289;28;20032;-68
2021/11/05 07:26:35;;;;;;;5.20;1.80;;;7.60;99.90;;;;;;5102244;28;20042;-69
2021/11/05 07:29:02;;;;;;;5.85;1.60;;;7.70;99.90;;;;;;5103981;28;20097;-68
2021/11/05 07:31:28;;;;;;;3.78;1.20;;;7.80;99.90;;;;;;5095849;28;20043;-69
2021/11/05 07:33:54;;;;;;;8.70;1.70;;;7.90;99.90;;;;;;5114441;28;20032;-69
2021/11/05 07:36:20;;;;;;;4.65;1.73;;;8.10;99.90;;;;;;5096240;28;20050;-69
2021/11/05 07:38:45;;;;;;;5.40;1.50;;;8.20;99.90;;;;;;5113819;28;20036;-68
2021/11/05 07:41:11;;;;;;;9.10;1.55;;;8.40;99.90;;;;;;5114776;28;20116;-69
2021/11/05 07:43:37;;;;;;;4.72;1.38;;;8.60;99.90;;;;;;5114329;28;20525;-69
2021/11/05 07:46:03;;;;;;;6.20;1.65;;;8.60;99.90;;;;;;5114292;28;20067;-69
2021/11/05 07:48:29;;;;;;;8.10;1.45;;;8.80;99.90;;;;;;5113858;28;20042;-69
2021/11/05 07:50:54;;;;;;;6.60;1.38;;;8.80;99.90;;;;;;5114228;28;20108;-69
2021/11/05 07:53:20;;;;;;;6.28;1.45;;;8.70;99.90;;;;;;5112941;28;20042;-69
2021/11/05 07:55:47;;;;;;;6.38;1.27;;;8.70;99.90;;;;;;5113895;28;20057;-69
2021/11/05 07:58:13;;;;;;;7.15;1.85;;;8.70;99.90;;;;;;5114279;28;20101;-69
2021/11/05 08:00:38;;;;;;;5.45;1.13;;;8.80;99.90;;;;;;5113643;28;20039;-68
2021/11/05 08:03:04;;;;;;;5.28;0.90;;;8.80;99.90;;;;;;5114049;28;20215;-69
2021/11/05 08:05:30;;;;;;;5.68;1.20;;;8.70;99.90;;;;;;5113843;28;20071;-69
2021/11/05 08:07:55;;;;;;;6.93;1.35;;;8.70;99.90;;;;;;5112526;28;20054;-69
2021/11/05 08:10:21;;;;;;;6.43;1.35;;;8.80;99.90;;;;;;5112278;28;20492;-70
2021/11/05 08:12:53;;;;;;;4.20;1.20;;;8.80;99.90;;;;;;5113534;28;20074;-69
2021/11/05 08:15:21;;;;;;;5.10;1.23;;;8.80;99.90;;;;;;5112324;28;20377;-69
2021/11/05 08:17:47;;;;;;;5.22;1.10;;;8.80;99.90;;;;;;5114038;28;20122;-69
2021/11/05 08:20:13;;;;;;;6.57;1.60;;;8.80;99.90;;;;;;5112119;28;20074;-69
2021/11/05 08:22:41;;;;;;;4.97;1.38;;;8.80;99.90;;;;;;5113524;28;20047;-69
2021/11/05 08:25:07;;;;;;;7.03;2.03;;;8.90;99.90;;;;;;5113496;28;20063;-69
2021/11/05 08:27:35;;;;;;;5.95;1.90;;;8.90;99.90;;;;;;5112394;28;20035;-69
2021/11/05 08:30:06;;;;;;;3.97;1.17;;;8.90;99.90;;;;;;5113352;28;20044;-68
2021/11/05 08:32:32;;;;;;;5.53;1.30;;;9.00;99.90;;;;;;5114333;28;20112;-69
2021/11/05 08:34:58;;;;;;;5.15;1.20;;;9.00;99.90;;;;;;5117736;28;20483;-69
2021/11/05 08:37:24;;;;;;;4.30;1.30;;;9.00;99.90;;;;;;5118251;28;20039;-69
2021/11/05 08:39:49;;;;;;;3.25;1.30;;;9.10;99.90;;;;;;5117183;28;20506;-69
2021/11/05 08:42:15;;;;;;;5.85;1.30;;;9.10;99.90;;;;;;5116408;28;20039;-69
2021/11/05 08:44:41;;;;;;;7.32;1.48;;;9.10;99.90;;;;;;5117856;28;20047;-69
2021/11/05 08:47:07;;;;;;;6.25;1.95;;;9.10;99.90;;;;;;5117520;28;20456;-69
2021/11/05 08:49:32;;;;;;;8.27;1.52;;;9.20;99.90;;;;;;5117228;28;20036;-68
2021/11/05 08:51:58;;;;;;;6.50;1.75;;;9.20;99.90;;;;;;5116088;28;20480;-69
2021/11/05 08:54:24;;;;;;;12.25;2.85;;;9.20;99.90;;;;;;5116360;28;20399;-69
2021/11/05 08:56:50;;;;;;;4.85;1.60;;;9.20;99.90;;;;;;5116319;28;20371;-69
2021/11/05 08:59:19;;;;;;;7.50;2.00;;;9.20;99.90;;;;;;5117073;28;20114;-68
2021/11/05 09:01:45;;;;;;;4.35;1.80;;;9.20;99.90;;;;;;5117161;28;20126;-69
2021/11/05 09:04:12;;;;;;;7.32;1.63;;;9.20;99.90;;;;;;5117066;28;20119;-69
2021/11/05 09:06:38;;;;;;;8.48;2.00;;;9.30;99.90;;;;;;5116325;28;20043;-69
2021/11/05 09:09:04;;;;;;;4.05;1.52;;;9.30;99.90;;;;;;5116899;28;20520;-68
2021/11/05 09:11:31;;;;;;;9.85;1.70;;;9.40;99.90;;;;;;5116871;28;20483;-69
2021/11/05 09:13:58;;;;;;;4.38;1.60;;;9.40;99.90;;;;;;5116788;27;20052;-68
2021/11/05 09:16:27;;;;;;;5.80;1.70;;;9.50;99.90;;;;;;5116765;28;20028;-69
2021/11/05 09:18:53;;;;;;;3.67;1.30;;;9.50;99.90;;;;;;5115414;28;20035;-69
2021/11/05 09:21:22;;;;;;;5.13;1.33;;;9.50;99.90;;;;;;5116812;28;20103;-69
2021/11/05 09:23:48;;;;;;;5.65;2.25;;;9.60;99.90;;;;;;5116503;28;20473;-69
2021/11/05 09:26:14;;;;;;;5.93;1.63;;;9.70;99.90;;;;;;5117063;28;20043;-71
2021/11/05 09:28:40;;;;;;;6.93;2.53;;;9.70;99.90;;;;;;5114790;28;20489;-72
2021/11/05 09:31:06;;;;;;;4.25;1.23;;;9.80;99.90;;;;;;5098382;28;20044;-72
2021/11/05 09:33:32;;;;;;;10.07;2.63;;;9.80;99.90;;;;;;5115193;28;20480;-72
2021/11/05 09:35:58;;;;;;;6.70;1.92;;;9.80;99.90;;;;;;5116045;28;20066;-72
2021/11/05 09:38:24;;;;;;;8.38;1.60;;;9.90;99.90;;;;;;5116220;28;20031;-72
2021/11/05 09:40:51;;;;;;;3.97;1.70;;;9.90;99.90;;;;;;5110986;28;20037;-71
2021/11/05 09:43:19;;;;;;;7.68;2.00;;;9.90;99.90;;;;;;5116191;28;20115;-72
2021/11/05 09:45:45;;;;;;;4.63;1.20;;;10.00;99.90;;;;;;5098741;28;20438;-71
2021/11/05 09:48:10;;;;;;;5.88;1.60;;;10.00;99.90;;;;;;5116449;28;20123;-72
2021/11/05 09:50:38;;;;;;;4.25;1.10;;;10.00;99.90;;;;;;5116065;28;20157;-72
2021/11/05 09:53:03;;;;;;;4.97;1.27;;;10.00;99.90;;;;;;5116101;28;20044;-71
2021/11/05 09:55:31;;;;;;;5.50;1.73;;;10.10;99.90;;;;;;5115401;28;20110;-71
2021/11/05 09:57:57;;;;;;;5.03;1.50;;;10.20;99.90;;;;;;5116389;28;20060;-72
2021/11/05 10:00:25;;;;;;;6.68;1.27;;;10.30;99.90;;;;;;5097756;28;20040;-71
2021/11/05 10:02:52;;;;;;;4.60;1.17;;;10.30;99.90;;;;;;5115944;28;20044;-71
2021/11/05 10:05:18;;;;;;;5.50;1.20;;;10.40;99.90;;;;;;5116291;28;20035;-71
2021/11/05 10:07:52;;;;;;;2.85;0.70;;;10.40;99.90;;;;;;5114690;28;20548;-71
2021/11/05 10:10:31;;;;;;;4.45;1.05;;;10.40;99.90;;;;;;5114417;28;20074;-70
2021/11/05 10:13:01;;;;;;;5.28;1.10;;;10.60;99.90;;;;;;5113883;28;20044;-70
2021/11/05 10:15:34;;;;;;;3.40;0.88;;;10.60;99.90;;;;;;5116233;28;20072;-70
2021/11/05 10:18:21;;;;;;;1.63;0.70;;;10.70;99.90;;;;;;5116061;28;20502;-71
2021/11/05 10:20:49;;;;;;;10.32;1.27;;;10.80;99.90;;;;;;5115750;28;20081;-69
2021/11/05 10:23:16;;;;;;;2.55;0.77;;;10.90;99.90;;;;;;5115927;28;20044;-70
2021/11/05 10:25:47;;;;;;;2.67;0.52;;;11.00;99.90;;;;;;5115775;28;20035;-70
2021/11/05 10:28:25;;;;;;;4.32;0.60;;;11.10;99.90;;;;;;5115612;28;20043;-70
2021/11/05 10:31:01;;;;;;;4.78;0.70;;;11.20;99.90;;;;;;5097241;28;20039;-70
2021/11/05 10:33:48;;;;;;;11.18;1.20;;;11.30;99.90;;;;;;5114149;28;20462;-70
2021/11/05 10:36:20;;;;;;;5.55;1.15;;;11.40;99.90;;;;;;5115584;28;20044;-71
2021/11/05 10:38:53;;;;;;;0.93;0.47;;;11.40;99.90;;;;;;5115223;28;20077;-70
2021/11/05 10:41:23;;;;;;;3.17;1.17;;;11.50;99.90;;;;;;5115451;28;20055;-71
2021/11/05 10:43:51;;;;;;;2.20;1.10;;;11.60;99.90;;;;;;5115339;28;20043;-70
2021/11/05 10:46:29;;;;;;;4.95;1.25;;;11.60;99.90;;;;;;5097708;28;20481;-71
2021/11/05 10:48:59;;;;;;;2.85;0.68;;;11.60;99.90;;;;;;5115430;28;20119;-70
2021/11/05 10:51:26;;;;;;;4.43;0.50;;;11.70;99.90;;;;;;5114656;28;20418;-70
2021/11/05 10:53:54;;;;;;;4.93;1.05;;;11.60;99.90;;;;;;5115345;28;20075;-71
2021/11/05 10:56:25;;;;;;;1.38;0.38;;;11.60;99.90;;;;;;5114097;28;20036;-70
2021/11/05 10:58:59;;;;;;;2.35;0.68;;;11.60;99.90;;;;;;5113756;28;20055;-70
2021/11/05 11:01:30;;;;;;;3.63;0.65;;;11.70;99.90;;;;;;5115244;28;20411;-70
2021/11/05 11:04:00;;;;;;;4.65;0.65;;;11.70;99.90;;;;;;5114004;28;20043;-70
2021/11/05 11:06:29;;;;;;;2.47;0.40;;;11.60;99.90;;;;;;5113756;28;20054;-70
2021/11/05 11:08:57;;;;;;;4.85;0.40;;;11.70;99.90;;;;;;5114740;28;20035;-69
2021/11/05 11:11:25;;;;;;;4.70;0.70;;;11.70;99.90;;;;;;5113425;28;20043;-70
2021/11/05 11:14:02;;;;;;;3.75;0.68;;;11.70;99.90;;;;;;5113283;28;20079;-70
2021/11/05 11:16:38;;;;;;;1.65;0.50;;;11.70;99.90;;;;;;5114649;28;20043;-68
2021/11/05 11:19:11;;;;;;;2.42;0.40;;;11.60;99.90;;;;;;5114333;27;20430;-68
2021/11/05 11:21:40;;;;;;;2.80;0.50;;;11.60;99.90;;;;;;5114573;28;20038;-68
2021/11/05 11:24:10;;;;;;;6.80;0.57;;;11.60;99.90;;;;;;5114717;28;20043;-68
2021/11/05 11:26:37;;;;;;;1.48;0.47;;;11.70;99.90;;;;;;5113101;28;20043;-67
2021/11/05 11:29:05;;;;;;;5.70;0.60;;;11.80;99.90;;;;;;5113969;28;20040;-70
2021/11/05 11:31:31;;;;;;;4.82;0.38;;;11.90;99.90;;;;;;5112969;28;20377;-70
2021/11/05 11:34:02;;;;;;;4.32;0.55;;;11.90;99.90;;;;;;5113329;28;20074;-71
2021/11/05 11:36:31;;;;;;;1.88;0.50;;;12.00;99.90;;;;;;5113064;28;20404;-70
2021/11/05 11:38:57;;;;;;;2.55;0.52;;;12.00;99.90;;;;;;5114067;28;20050;-71
2021/11/05 11:41:23;;;;;;;3.03;0.60;;;12.00;99.90;;;;;;5113229;28;20113;-70
2021/11/05 11:43:53;;;;;;;3.00;1.08;;;12.00;99.90;;;;;;5114485;28;20414;-71
2021/11/05 11:46:19;;;;;;;3.30;0.70;;;11.90;99.90;;;;;;5114347;28;20041;-70
2021/11/05 11:48:49;;;;;;;3.20;0.43;;;11.80;99.90;;;;;;5113778;28;20036;-71
2021/11/05 11:51:32;;;;;;;1.88;0.52;;;11.80;99.90;;;;;;5112718;28;20035;-70
2021/11/05 11:54:21;;;;;;;;;;;11.70;99.90;;;;;;5113132;28;20044;-72
2021/11/05 11:56:47;;;;;;;2.10;0.45;;;11.60;99.90;;;;;;5112896;28;20402;-72
2021/11/05 11:59:15;;;;;;;0.95;0.40;;;11.60;99.90;;;;;;5113866;28;20062;-70
2021/11/05 12:01:45;;;;;;;1.38;0.38;;;11.60;99.90;;;;;;5112877;28;20101;-70
2021/11/05 12:04:15;;;;;;;4.70;0.52;;;11.70;99.90;;;;;;5113980;28;20031;-71
2021/11/05 12:06:50;;;;;;;5.03;1.02;;;11.60;99.90;;;;;;5113803;28;20088;-70
2021/11/05 12:09:26;;;;;;;4.18;0.82;;;11.50;99.90;;;;;;5113624;28;20040;-71
2021/11/05 12:12:21;;;;;;;3.60;0.90;;;11.40;99.90;;;;;;5112670;28;20043;-71
2021/11/05 12:14:59;;;;;;;1.75;0.50;;;11.30;99.90;;;;;;5112354;28;20408;-72
2021/11/05 12:17:31;;;;;;;2.72;0.57;;;11.30;99.90;;;;;;5113922;28;20144;-72
2021/11/05 12:20:00;;;;;;;4.20;0.65;;;11.30;99.90;;;;;;5112420;28;20040;-72
2021/11/05 12:22:30;;;;;;;1.77;0.47;;;11.30;99.90;;;;;;5113954;28;20039;-72
2021/11/05 12:25:16;;;;;;;4.65;0.65;;;11.30;99.90;;;;;;5113560;28;20361;-72
2021/11/05 12:28:18;;;;;;;6.28;0.60;;;11.30;99.90;;;;;;5112678;28;20039;-72
2021/11/05 12:30:47;;;;;;;2.75;0.65;;;11.30;99.90;;;;;;5103984;28;20056;-70
2021/11/05 12:33:34;;;;;;;3.85;0.55;;;11.30;99.90;;;;;;5112093;28;20126;-72
2021/11/05 12:36:02;;;;;;;4.28;0.63;;;11.20;99.90;;;;;;5112276;28;20492;-71
2021/11/05 12:38:28;;;;;;;2.28;0.50;;;11.20;99.90;;;;;;5112180;28;20046;-70
2021/11/05 12:41:04;;;;;;;3.85;0.50;;;11.20;99.90;;;;;;5113477;28;20038;-71
2021/11/05 12:43:36;;;;;;;4.45;0.52;;;11.20;99.90;;;;;;5113389;28;20085;-72
2021/11/05 12:46:11;;;;;;;2.45;0.52;;;11.10;99.90;;;;;;5112387;28;20043;-70
2021/11/05 12:48:41;;;;;;;2.55;0.50;;;11.20;99.90;;;;;;5113199;28;20039;-70
2021/11/05 12:51:19;;;;;;;6.43;0.95;;;11.20;99.90;;;;;;5113396;28;20052;-71
2021/11/05 12:53:55;;;;;;;4.80;1.00;;;11.10;99.90;;;;;;5113837;28;20051;-71